St Helier, United Kingdom
Current Conditions -  °F | °C
As of 12:20 PM on Saturday 25 Oct 2014 (Local Time) from EGJJ Reporting Station
Scattered Clouds Scattered Clouds  
Wind Chill: 59°   Ceiling: Unl
Heat Index: 59°   Visibility: 6mi
Dew Point: 54°   Wind: 10mph
Humidity: 82%   Direction: 250°WSW
Pressure: 30.15"   Gusts: NA
Location:  49.18°N, 2.1°W
Report Text: EGJJ 251120Z 25009KT 9999 FEW018 SCT030 15/12 Q1021 NOSIG
Loading
Personal Weather Stations






























Interactive Weather Map
Tropical Storm Tracking
New forecast layout! Learn more

10-Day Weather Forecast

Advertisements
Track Severe Weather on mobile